createdAt,value
2022-09-07T00:00:29.201Z,69.99
2022-09-07T00:01:29.214Z,69.59
2022-09-07T00:02:29.192Z,70.49
2022-09-07T00:03:29.250Z,70.39
2022-09-07T00:04:29.769Z,69.59
2022-09-07T00:05:31.682Z,69.59
2022-09-07T00:06:29.138Z,69.89
2022-09-07T00:07:29.152Z,70.29
2022-09-07T00:08:29.189Z,71.36
2022-09-07T00:09:29.103Z,71.29
2022-09-07T00:10:29.081Z,71.46
2022-09-07T00:11:29.083Z,71.16
2022-09-07T00:12:29.669Z,70.96
2022-09-07T00:13:29.204Z,70.56
2022-09-07T00:14:29.042Z,71.66
2022-09-07T00:15:29.049Z,71.89
2022-09-07T00:16:29.124Z,71.46
2022-09-07T00:17:29.689Z,71.06
2022-09-07T00:18:29.789Z,70.56
2022-09-07T00:19:29.208Z,70.49
2022-09-07T00:20:28.973Z,71.16
2022-09-07T00:21:28.976Z,71.49
2022-09-07T00:22:29.682Z,71.89
2022-09-07T00:23:28.950Z,72.72
2022-09-07T00:24:28.955Z,72.03
2022-09-07T00:25:31.765Z,72.16
2022-09-07T00:26:31.674Z,72.16
2022-09-07T00:27:28.900Z,70.83
2022-09-07T00:28:28.985Z,69.32
2022-09-07T00:29:28.901Z,68.79
2022-09-07T00:30:31.679Z,67.66
2022-09-07T00:31:28.869Z,69.06
2022-09-07T00:32:28.845Z,70.12
2022-09-07T00:33:28.834Z,71.42
2022-09-07T00:34:28.819Z,73.36
2022-09-07T00:35:28.835Z,74.49
2022-09-07T00:36:28.805Z,75.89
2022-09-07T00:37:28.799Z,76.23
2022-09-07T00:38:28.951Z,76.17
2022-09-07T00:39:31.723Z,77.76
2022-09-07T00:40:28.755Z,78.27
2022-09-07T00:41:28.746Z,78.86
2022-09-07T00:42:28.737Z,79.91
2022-09-07T00:43:28.727Z,79.60
2022-09-07T00:44:28.731Z,80.11
2022-09-07T00:45:28.710Z,79.80
2022-09-07T00:46:28.787Z,79.71
2022-09-07T00:47:28.685Z,79.54
2022-09-07T00:48:29.182Z,80.54
2022-09-07T00:49:28.660Z,81.35
2022-09-07T00:50:28.655Z,81.95
2022-09-07T00:51:28.665Z,81.99
2022-09-07T00:52:28.630Z,81.88
2022-09-07T00:53:29.175Z,82.69
2022-09-07T00:54:29.188Z,81.55
2022-09-07T00:55:28.608Z,82.35
2022-09-07T00:56:28.583Z,82.65
2022-09-07T00:57:31.181Z,81.95
2022-09-07T00:58:28.579Z,82.29
2022-09-07T00:59:29.197Z,83.15
2022-09-07T01:00:28.551Z,82.95
2022-09-07T01:01:28.718Z,83.19
2022-09-07T01:02:28.611Z,83.69
2022-09-07T01:03:29.184Z,84.19
2022-09-07T01:04:29.196Z,84.29
2022-09-07T01:05:29.190Z,83.89
2022-09-07T01:06:28.476Z,84.03
2022-09-07T01:07:28.477Z,84.93
2022-09-07T01:08:28.521Z,84.53
2022-09-07T01:09:28.433Z,85.13
2022-09-07T01:10:29.203Z,84.93
2022-09-07T01:11:28.432Z,84.93
2022-09-07T01:12:28.402Z,84.63
2022-09-07T01:13:28.400Z,84.74
2022-09-07T01:14:35.180Z,84.83
2022-09-07T01:15:28.364Z,85.03
2022-09-07T01:16:28.404Z,85.53
2022-09-07T01:17:28.723Z,84.23
2022-09-07T01:18:28.361Z,84.13
2022-09-07T01:19:28.342Z,84.93
2022-09-07T01:20:28.308Z,84.49
2022-09-07T01:21:29.194Z,85.03
2022-09-07T01:22:28.291Z,84.93
2022-09-07T01:23:30.272Z,85.24
2022-09-07T01:24:28.282Z,85.13
2022-09-07T01:25:28.260Z,85.24
2022-09-07T01:26:28.270Z,85.63
2022-09-07T01:27:31.194Z,85.33
2022-09-07T01:28:28.300Z,86.04
2022-09-07T01:29:28.210Z,86.04
2022-09-07T01:30:28.225Z,86.24
2022-09-07T01:31:28.733Z,86.33
2022-09-07T01:32:28.279Z,86.24
2022-09-07T01:33:28.696Z,86.33
2022-09-07T01:34:34.691Z,86.64
2022-09-07T01:35:34.712Z,86.44
2022-09-07T01:36:28.148Z,86.94
2022-09-07T01:37:28.121Z,87.78
2022-09-07T01:38:28.205Z,87.58
2022-09-07T01:39:28.133Z,87.48
2022-09-07T01:40:28.687Z,88.68
2022-09-07T01:41:28.087Z,88.83
2022-09-07T01:42:28.187Z,89.53
2022-09-07T01:43:28.052Z,89.53
2022-09-07T01:44:28.044Z,89.83
2022-09-07T01:45:28.034Z,89.63
2022-09-07T01:46:28.795Z,90.44
2022-09-07T01:47:28.025Z,90.78
2022-09-07T01:48:27.995Z,90.98
2022-09-07T01:49:28.005Z,91.88
2022-09-07T01:50:27.970Z,91.38
2022-09-07T01:51:27.963Z,92.63
2022-09-07T01:52:27.946Z,92.13
2022-09-07T01:53:27.935Z,92.23
2022-09-07T01:54:27.937Z,93.13
2022-09-07T01:55:27.910Z,93.13
2022-09-07T01:56:27.916Z,93.13
2022-09-07T01:57:27.914Z,93.54
2022-09-07T01:58:27.888Z,93.33
2022-09-07T01:59:27.865Z,92.93
2022-09-07T02:00:27.858Z,93.54
2022-09-07T02:01:27.875Z,92.77
2022-09-07T02:02:30.777Z,93.33
2022-09-07T02:03:34.697Z,93.43
2022-09-07T02:04:27.833Z,93.13
2022-09-07T02:05:27.807Z,93.28
2022-09-07T02:06:27.795Z,93.54
2022-09-07T02:07:27.784Z,92.73
2022-09-07T02:08:27.773Z,93.13
2022-09-07T02:09:27.775Z,92.93
2022-09-07T02:10:27.747Z,94.34
2022-09-07T02:11:27.738Z,94.18
2022-09-07T02:12:27.721Z,94.18
2022-09-07T02:13:27.724Z,93.84
2022-09-07T02:14:27.727Z,93.33
2022-09-07T02:15:27.768Z,94.24
2022-09-07T02:16:27.678Z,93.93
2022-09-07T02:17:27.688Z,94.24
2022-09-07T02:18:27.687Z,94.04
2022-09-07T02:19:27.663Z,94.13
2022-09-07T02:20:27.645Z,94.59
2022-09-07T02:21:27.630Z,94.28
2022-09-07T02:22:27.720Z,94.94
2022-09-07T02:23:27.613Z,95.18
2022-09-07T02:24:27.594Z,94.28
2022-09-07T02:25:27.587Z,95.89
2022-09-07T02:26:27.593Z,95.99
2022-09-07T02:27:27.571Z,95.89
2022-09-07T02:28:27.640Z,96.30
2022-09-07T02:29:30.909Z,96.39
2022-09-07T02:30:27.544Z,96.59
2022-09-07T02:31:27.598Z,96.30
2022-09-07T02:32:28.223Z,96.50
2022-09-07T02:33:27.501Z,96.19
2022-09-07T02:34:27.494Z,96.64
2022-09-07T02:35:27.493Z,96.69
2022-09-07T02:36:27.467Z,97.70
2022-09-07T02:37:27.587Z,97.95
2022-09-07T02:38:27.515Z,97.95
2022-09-07T02:39:27.474Z,98.30
2022-09-07T02:40:28.225Z,98.20
2022-09-07T02:41:27.414Z,98.20
2022-09-07T02:42:27.405Z,97.60
2022-09-07T02:43:27.433Z,97.50
2022-09-07T02:44:27.381Z,97.75
2022-09-07T02:45:27.375Z,98.30
2022-09-07T02:46:27.408Z,98.00
2022-09-07T02:47:27.457Z,98.50
2022-09-07T02:48:27.375Z,98.40
2022-09-07T02:49:27.733Z,98.50
2022-09-07T02:50:27.317Z,97.70
2022-09-07T02:51:27.314Z,97.60
2022-09-07T02:52:27.314Z,98.00
2022-09-07T02:53:27.290Z,98.40
2022-09-07T02:54:27.277Z,98.20
2022-09-07T02:55:28.223Z,98.40
2022-09-07T02:56:30.203Z,98.45
2022-09-07T02:57:27.258Z,97.80
2022-09-07T02:58:27.330Z,98.30
2022-09-07T02:59:27.233Z,97.95
2022-09-07T03:00:27.209Z,98.05
2022-09-07T03:01:27.219Z,98.35
2022-09-07T03:02:27.232Z,98.05
2022-09-07T03:03:27.176Z,97.95
2022-09-07T03:04:27.200Z,97.64
2022-09-07T03:05:27.149Z,98.19
2022-09-07T03:06:27.155Z,98.60
2022-09-07T03:07:27.137Z,98.30
2022-09-07T03:08:27.163Z,97.94
2022-09-07T03:09:29.705Z,99.05
2022-09-07T03:10:27.140Z,98.94
2022-09-07T03:11:27.087Z,99.80
2022-09-07T03:12:27.238Z,99.15
2022-09-07T03:13:27.069Z,98.80
2022-09-07T03:14:27.717Z,99.15
2022-09-07T03:15:27.799Z,99.30
2022-09-07T03:16:27.036Z,99.10
2022-09-07T03:17:27.044Z,98.90
2022-09-07T03:18:27.080Z,99.30
2022-09-07T03:19:26.999Z,99.00
2022-09-07T03:20:27.001Z,99.20
2022-09-07T03:21:26.983Z,99.10
2022-09-07T03:22:26.967Z,99.10
2022-09-07T03:23:27.242Z,99.20
2022-09-07T03:24:29.711Z,99.30
2022-09-07T03:25:26.954Z,97.94
2022-09-07T03:26:26.926Z,98.30
2022-09-07T03:27:29.712Z,98.74
2022-09-07T03:28:26.911Z,98.39
2022-09-07T03:29:26.893Z,98.44
2022-09-07T03:30:26.901Z,98.60
2022-09-07T03:31:26.919Z,99.15
2022-09-07T03:32:26.851Z,99.35
2022-09-07T03:33:26.839Z,99.05
2022-09-07T03:34:26.840Z,99.25
2022-09-07T03:35:26.819Z,99.05
2022-09-07T03:36:26.832Z,99.25
2022-09-07T03:37:26.799Z,99.25
2022-09-07T03:38:26.854Z,99.15
2022-09-07T03:39:27.788Z,99.15
2022-09-07T03:40:26.786Z,99.25
2022-09-07T03:41:26.765Z,99.25
2022-09-07T03:42:26.749Z,98.65
2022-09-07T03:43:26.733Z,99.25
2022-09-07T03:44:27.710Z,99.65
2022-09-07T03:45:26.711Z,99.90
2022-09-07T03:46:26.784Z,99.70
2022-09-07T03:47:26.695Z,99.60
2022-09-07T03:48:26.723Z,99.70
2022-09-07T03:49:26.672Z,99.90
2022-09-07T03:50:26.665Z,99.99
2022-09-07T03:51:26.638Z,99.50
2022-09-07T03:52:26.654Z,99.50
2022-09-07T03:53:26.638Z,99.65
2022-09-07T03:54:26.621Z,99.90
2022-09-07T03:55:26.592Z,99.74
2022-09-07T03:56:29.229Z,99.99
2022-09-07T03:57:26.572Z,99.65
2022-09-07T03:58:26.587Z,99.70
2022-09-07T03:59:26.556Z,99.65
2022-09-07T04:00:27.231Z,99.65
2022-09-07T04:01:26.606Z,99.95
2022-09-07T04:02:26.558Z,99.85
2022-09-07T04:03:26.556Z,99.30
2022-09-07T04:04:26.501Z,99.74
2022-09-07T04:05:26.583Z,99.34
2022-09-07T04:06:26.476Z,99.54
2022-09-07T04:07:26.467Z,99.85
2022-09-07T04:08:26.458Z,99.65
2022-09-07T04:09:26.463Z,99.99
2022-09-07T04:10:26.434Z,99.79
2022-09-07T04:11:26.420Z,99.59
2022-09-07T04:12:26.400Z,99.99
2022-09-07T04:13:26.390Z,99.99
2022-09-07T04:14:26.516Z,99.99
2022-09-07T04:15:26.375Z,99.99
2022-09-07T04:16:26.428Z,99.99
2022-09-07T04:17:26.350Z,99.99
2022-09-07T04:18:26.342Z,99.99
2022-09-07T04:19:26.345Z,99.99
2022-09-07T04:20:26.318Z,99.99
2022-09-07T04:21:26.304Z,99.99
2022-09-07T04:22:26.342Z,99.99
2022-09-07T04:23:26.307Z,99.99
2022-09-07T04:24:26.285Z,99.99
2022-09-07T04:25:26.262Z,99.99
2022-09-07T04:26:26.265Z,99.99
2022-09-07T04:27:26.262Z,99.99
2022-09-07T04:28:26.228Z,99.99
2022-09-07T04:29:26.223Z,99.99
2022-09-07T04:30:26.239Z,99.99
2022-09-07T04:31:26.262Z,99.99
2022-09-07T04:32:26.183Z,99.99
2022-09-07T04:33:26.186Z,99.69
2022-09-07T04:34:26.184Z,99.99
2022-09-07T04:35:26.166Z,99.99
2022-09-07T04:36:26.142Z,99.99
2022-09-07T04:37:26.154Z,99.99
2022-09-07T04:38:26.151Z,99.64
2022-09-07T04:39:26.131Z,99.84
2022-09-07T04:40:26.099Z,99.99
2022-09-07T04:41:26.255Z,99.99
2022-09-07T04:42:26.119Z,99.99
2022-09-07T04:43:26.109Z,99.99
2022-09-07T04:44:26.046Z,99.99
2022-09-07T04:45:26.062Z,99.99
2022-09-07T04:46:26.068Z,99.99
2022-09-07T04:47:26.036Z,99.99
2022-09-07T04:48:26.007Z,99.99
2022-09-07T04:49:26.006Z,99.99
2022-09-07T04:50:26.754Z,99.99
2022-09-07T04:51:25.986Z,99.99
2022-09-07T04:52:26.007Z,99.99
2022-09-07T04:53:25.949Z,99.99
2022-09-07T04:54:25.953Z,99.99
2022-09-07T04:55:25.923Z,99.99
2022-09-07T04:56:25.925Z,99.94
2022-09-07T04:57:25.930Z,99.99
2022-09-07T04:58:25.898Z,99.84
2022-09-07T04:59:26.733Z,99.84
2022-09-07T05:00:25.873Z,99.99
2022-09-07T05:01:26.131Z,99.99
2022-09-07T05:02:26.312Z,99.99
2022-09-07T05:03:25.982Z,99.99
2022-09-07T05:04:25.853Z,99.64
2022-09-07T05:05:26.072Z,99.99
2022-09-07T05:06:25.803Z,99.84
2022-09-07T05:07:26.113Z,99.99
2022-09-07T05:08:25.780Z,99.94
2022-09-07T05:09:25.876Z,99.94
2022-09-07T05:10:25.839Z,99.74
2022-09-07T05:11:29.131Z,99.64
2022-09-07T05:12:25.762Z,99.64
2022-09-07T05:13:25.729Z,99.74
2022-09-07T05:14:25.720Z,99.84
2022-09-07T05:15:25.731Z,99.64
2022-09-07T05:16:25.797Z,99.94
2022-09-07T05:17:25.678Z,99.54
2022-09-07T05:18:25.964Z,99.99
2022-09-07T05:19:25.669Z,99.94
2022-09-07T05:20:25.746Z,99.84
2022-09-07T05:21:25.667Z,99.99
2022-09-07T05:22:25.626Z,99.99
2022-09-07T05:23:25.616Z,99.99
2022-09-07T05:24:25.721Z,99.99
2022-09-07T05:25:25.592Z,99.99
2022-09-07T05:26:25.847Z,99.99
2022-09-07T05:27:26.228Z,99.99
2022-09-07T05:28:25.751Z,99.99
2022-09-07T05:31:26.554Z,99.99
2022-09-07T05:32:25.737Z,99.99
2022-09-07T05:34:30.077Z,99.99
2022-09-07T05:35:25.489Z,99.99
2022-09-07T05:36:25.603Z,99.99
2022-09-07T05:37:25.489Z,99.99
2022-09-07T05:38:25.710Z,99.99
2022-09-07T05:39:25.571Z,99.99
2022-09-07T05:40:25.423Z,99.99
2022-09-07T05:41:25.418Z,99.99
2022-09-07T05:42:25.442Z,99.99
2022-09-07T05:43:25.417Z,99.99
2022-09-07T05:45:26.580Z,99.99
2022-09-07T05:46:25.464Z,99.99
2022-09-07T05:47:25.514Z,99.99
2022-09-07T05:48:26.235Z,99.99
2022-09-07T05:49:25.490Z,99.99
2022-09-07T05:50:25.318Z,99.99
2022-09-07T05:51:25.394Z,99.99
2022-09-07T05:52:25.327Z,99.99
2022-09-07T05:53:25.285Z,99.99
2022-09-07T05:54:25.278Z,99.99
2022-09-07T05:55:30.242Z,99.99
2022-09-07T05:56:26.252Z,99.99
2022-09-07T05:57:25.439Z,99.99
2022-09-07T05:58:25.304Z,99.99
2022-09-07T05:59:25.247Z,99.99
2022-09-07T06:00:25.254Z,99.99
2022-09-07T06:01:27.737Z,99.99
2022-09-07T06:02:25.525Z,99.99
2022-09-07T06:03:25.254Z,99.99
2022-09-07T06:04:25.433Z,99.99
2022-09-07T06:05:25.148Z,99.99
2022-09-07T06:06:25.295Z,99.99
2022-09-07T06:07:25.137Z,99.99
2022-09-07T06:08:25.364Z,99.99
2022-09-07T06:09:28.525Z,99.99
2022-09-07T06:11:26.086Z,99.99
2022-09-07T06:12:25.132Z,99.99
2022-09-07T06:13:26.045Z,99.99
2022-09-07T06:14:25.047Z,99.99
2022-09-07T06:15:25.409Z,99.99
2022-09-07T06:16:25.096Z,99.99
2022-09-07T06:17:25.164Z,99.99
2022-09-07T06:18:25.260Z,99.99
2022-09-07T06:19:25.282Z,99.99
2022-09-07T06:20:24.977Z,99.99
2022-09-07T06:21:27.856Z,99.99
2022-09-07T06:22:28.844Z,99.99
2022-09-07T06:23:26.094Z,99.99
2022-09-07T06:24:24.936Z,99.99
2022-09-07T06:25:25.016Z,99.99
2022-09-07T06:26:24.918Z,99.99
2022-09-07T06:27:25.279Z,99.99
2022-09-07T06:28:24.891Z,99.99
2022-09-07T06:29:25.856Z,99.99
2022-09-07T06:30:27.739Z,99.99
2022-09-07T06:31:24.953Z,99.99
2022-09-07T06:33:26.000Z,99.99
2022-09-07T06:34:27.743Z,99.99
2022-09-07T06:35:24.876Z,99.99
2022-09-07T06:36:24.797Z,99.99
2022-09-07T06:37:24.941Z,99.99
2022-09-07T06:38:28.794Z,99.99
2022-09-07T06:39:25.960Z,99.99
2022-09-07T06:40:25.793Z,99.99
2022-09-07T06:42:25.963Z,99.99
2022-09-07T06:43:24.866Z,99.99
2022-09-07T06:44:24.739Z,99.99
2022-09-07T06:45:24.830Z,99.99
2022-09-07T06:47:25.783Z,99.99
2022-09-07T06:48:24.729Z,99.99
2022-09-07T06:49:24.821Z,99.99
2022-09-07T06:50:24.907Z,99.99
2022-09-07T06:51:24.639Z,99.99
2022-09-07T06:52:25.202Z,99.99
2022-09-07T06:53:41.847Z,99.99
2022-09-07T06:55:28.264Z,99.99
2022-09-07T06:56:25.266Z,99.99
2022-09-07T06:57:24.625Z,99.86
2022-09-07T06:58:24.769Z,99.86
2022-09-07T06:59:24.632Z,99.61
2022-09-07T07:00:24.921Z,97.95
2022-09-07T07:01:24.696Z,98.85
2022-09-07T07:02:24.511Z,99.05
2022-09-07T07:03:24.727Z,99.11
2022-09-07T07:04:24.496Z,99.11
2022-09-07T07:05:24.519Z,98.10
2022-09-07T07:06:24.490Z,98.25
2022-09-07T07:07:24.489Z,98.46
2022-09-07T07:08:31.448Z,98.46
2022-09-07T07:09:24.574Z,98.36
2022-09-07T07:10:25.126Z,98.61
2022-09-07T07:11:24.434Z,98.01
2022-09-07T07:12:55.495Z,98.21
2022-09-07T07:13:55.411Z,97.86
2022-09-07T07:14:55.455Z,97.86
2022-09-07T07:15:56.065Z,98.16
2022-09-07T07:16:55.471Z,97.56
2022-09-07T07:17:59.136Z,97.66
2022-09-07T07:18:57.046Z,96.71
2022-09-07T07:19:55.493Z,96.61
2022-09-07T07:20:55.588Z,95.75
2022-09-07T07:22:35.627Z,95.45
2022-09-07T07:22:56.324Z,96.36
2022-09-07T07:24:06.171Z,95.55
2022-09-07T07:24:59.208Z,96.36
2022-09-07T07:25:55.274Z,95.45
2022-09-07T07:26:55.572Z,96.06
2022-09-07T07:29:56.072Z,96.01
2022-09-07T07:30:55.218Z,95.75
2022-09-07T07:31:55.379Z,95.86
2022-09-07T07:32:55.421Z,95.75
2022-09-07T07:33:55.258Z,96.10
2022-09-07T07:34:55.232Z,95.60
2022-09-07T07:35:55.173Z,95.90
2022-09-07T07:36:55.200Z,96.15
2022-09-07T07:41:58.753Z,96.20
2022-09-07T07:42:57.045Z,96.41
2022-09-07T07:43:55.106Z,96.30
2022-09-07T07:45:56.146Z,96.00
2022-09-07T07:46:55.107Z,95.60
2022-09-07T07:47:55.044Z,95.30
2022-09-07T07:48:55.548Z,95.75
2022-09-07T07:50:56.083Z,95.95
2022-09-07T07:53:56.231Z,95.25
2022-09-07T07:54:55.549Z,95.65
2022-09-07T07:55:54.981Z,95.81
2022-09-07T07:56:57.554Z,95.61
2022-09-07T07:57:54.931Z,94.81
2022-09-07T07:58:54.936Z,94.31
2022-09-07T07:59:54.918Z,94.40
2022-09-07T08:00:56.041Z,93.96
2022-09-07T08:01:55.045Z,93.05
2022-09-07T08:02:54.873Z,93.16
2022-09-07T08:04:01.554Z,93.91
2022-09-07T08:04:54.849Z,92.91
2022-09-07T08:05:54.909Z,94.12
2022-09-07T08:06:55.556Z,93.81
2022-09-07T08:07:55.086Z,93.01
2022-09-07T08:08:54.831Z,92.96
2022-09-07T08:09:54.816Z,92.71
2022-09-07T08:10:54.785Z,92.41
2022-09-07T08:11:54.771Z,92.91
2022-09-07T08:12:54.787Z,93.31
2022-09-07T08:13:55.088Z,92.81
2022-09-07T08:14:54.740Z,92.61
2022-09-07T08:15:54.774Z,92.96
2022-09-07T08:16:54.718Z,92.91
2022-09-07T08:17:54.712Z,92.76
2022-09-07T08:18:54.712Z,93.05
2022-09-07T08:19:55.088Z,93.46
2022-09-07T08:20:57.578Z,92.81
2022-09-07T08:21:54.670Z,93.11
2022-09-07T08:22:57.559Z,91.65
2022-09-07T08:23:57.564Z,93.05
2022-09-07T08:24:54.632Z,94.01
2022-09-07T08:25:54.641Z,92.61
2022-09-07T08:26:54.607Z,93.31
2022-09-07T08:27:54.604Z,93.01
2022-09-07T08:28:54.583Z,94.01
2022-09-07T08:29:54.571Z,94.07
2022-09-07T08:30:54.546Z,93.37
2022-09-07T08:31:54.685Z,93.07
2022-09-07T08:32:54.538Z,92.07
2022-09-07T08:34:09.056Z,93.07
2022-09-07T08:34:57.058Z,91.47
2022-09-07T08:35:54.502Z,92.07
2022-09-07T08:36:54.755Z,92.21
2022-09-07T08:37:55.069Z,92.11
2022-09-07T08:39:01.063Z,92.41
2022-09-07T08:39:54.571Z,92.57
2022-09-07T08:40:54.445Z,91.97
2022-09-07T08:41:54.436Z,91.27
2022-09-07T08:42:55.073Z,90.77
2022-09-07T08:43:54.430Z,90.77
2022-09-07T08:44:54.445Z,91.86
2022-09-07T08:45:57.062Z,91.47
2022-09-07T08:46:54.451Z,92.32
2022-09-07T08:47:54.372Z,92.02
2022-09-07T08:48:55.071Z,91.02
2022-09-07T08:49:54.370Z,90.82
2022-09-07T08:50:55.071Z,91.12
2022-09-07T08:51:54.326Z,90.96
2022-09-07T08:52:54.331Z,90.77
2022-09-07T08:53:54.303Z,91.97
2022-09-07T08:54:54.588Z,91.22
2022-09-07T08:55:54.300Z,91.27
2022-09-07T08:57:55.263Z,90.77
2022-09-07T08:58:54.297Z,91.16
2022-09-07T08:59:57.061Z,90.02
2022-09-07T09:01:30.713Z,90.72
2022-09-07T09:05:56.196Z,89.52
2022-09-07T09:06:54.278Z,89.22
2022-09-07T09:07:54.152Z,89.42
2022-09-07T09:08:54.159Z,89.62
2022-09-07T09:09:54.148Z,89.72
2022-09-07T09:10:54.130Z,89.52
2022-09-07T09:11:54.110Z,89.72
2022-09-07T09:12:54.100Z,88.52
2022-09-07T09:13:54.088Z,89.07
2022-09-07T09:14:54.074Z,89.78
2022-09-07T09:15:54.143Z,88.98
2022-09-07T09:16:54.063Z,89.07
2022-09-07T09:17:54.044Z,88.68
2022-09-07T09:18:54.022Z,89.22
2022-09-07T09:19:54.026Z,89.32
2022-09-07T09:20:54.569Z,89.42
2022-09-07T09:21:54.017Z,89.62
2022-09-07T09:23:08.580Z,89.76
2022-09-07T09:23:53.975Z,89.56
2022-09-07T09:24:54.591Z,89.92
2022-09-07T09:26:00.571Z,89.62
2022-09-07T09:26:54.100Z,89.62
2022-09-07T09:28:08.575Z,89.58
2022-09-07T09:28:55.313Z,88.28
2022-09-07T09:30:00.589Z,88.68
2022-09-07T09:30:53.978Z,89.68
2022-09-07T09:31:53.897Z,88.98
2022-09-07T09:32:53.902Z,88.64
2022-09-07T09:33:54.558Z,88.93
2022-09-07T09:34:53.854Z,88.28
2022-09-07T09:35:54.573Z,89.03
2022-09-07T09:36:53.838Z,88.43
2022-09-07T09:37:53.825Z,88.33
2022-09-07T09:38:53.862Z,88.93
2022-09-07T09:39:55.518Z,87.19
2022-09-07T09:40:53.803Z,87.19
2022-09-07T09:41:53.793Z,87.39
2022-09-07T09:42:53.787Z,86.85
2022-09-07T09:43:53.754Z,86.89
2022-09-07T09:44:53.770Z,86.69
2022-09-07T09:47:55.630Z,85.99
2022-09-07T09:48:53.710Z,86.35
2022-09-07T09:49:56.585Z,86.95
2022-09-07T09:52:54.674Z,86.01
2022-09-07T09:53:53.646Z,85.05
2022-09-07T09:54:55.845Z,86.05
2022-09-07T09:55:53.616Z,86.15
2022-09-07T09:57:00.594Z,86.35
2022-09-07T09:59:58.362Z,86.95
2022-09-07T10:01:26.668Z,87.91
2022-09-07T10:04:53.524Z,85.61
2022-09-07T10:05:57.139Z,85.01
2022-09-07T10:06:53.520Z,84.71
2022-09-07T10:07:54.091Z,86.15
2022-09-07T10:08:54.088Z,86.25
2022-09-07T10:09:53.472Z,85.91
2022-09-07T10:10:53.473Z,86.11
2022-09-07T10:12:11.361Z,86.41
2022-09-07T10:12:54.461Z,85.81
2022-09-07T10:13:54.076Z,86.17
2022-09-07T10:14:54.092Z,84.27
2022-09-07T10:15:53.512Z,83.03
2022-09-07T10:16:53.415Z,82.83
2022-09-07T10:17:54.076Z,81.54
2022-09-07T10:18:54.083Z,81.10
2022-09-07T10:19:58.159Z,82.03
2022-09-07T10:20:53.338Z,80.24
2022-09-07T10:21:54.087Z,83.69
2022-09-07T10:22:53.342Z,83.85
2022-09-07T10:23:53.312Z,82.45
2022-09-07T10:24:53.304Z,82.89
2022-09-07T10:25:56.088Z,82.39
2022-09-07T10:26:56.075Z,82.50
2022-09-07T10:27:53.300Z,82.50
2022-09-07T10:29:08.054Z,81.96
2022-09-07T10:29:54.254Z,81.60
2022-09-07T10:30:54.153Z,81.06
2022-09-07T10:31:53.225Z,80.36
2022-09-07T10:32:53.237Z,80.82
2022-09-07T10:34:54.193Z,78.49
2022-09-07T10:35:53.179Z,79.05
2022-09-07T10:36:54.088Z,78.06
2022-09-07T10:37:53.628Z,79.49
2022-09-07T10:38:53.154Z,79.19
2022-09-07T10:39:58.191Z,80.18
2022-09-07T10:40:54.131Z,79.43
2022-09-07T10:41:53.114Z,81.32
2022-09-07T10:43:54.104Z,81.16
2022-09-07T10:44:53.126Z,81.10
2022-09-07T10:45:53.130Z,82.43
2022-09-07T10:46:57.112Z,81.70
2022-09-07T10:47:53.583Z,82.50
2022-09-07T10:48:53.069Z,82.53
2022-09-07T10:50:22.922Z,82.29
2022-09-07T10:50:54.019Z,81.60
2022-09-07T10:51:53.014Z,81.90
2022-09-07T10:52:53.587Z,81.63
2022-09-07T10:54:53.989Z,82.53
2022-09-07T10:55:52.987Z,82.50
2022-09-07T10:56:53.586Z,82.83
2022-09-07T10:57:54.645Z,82.97
2022-09-07T10:59:08.375Z,83.21
2022-09-07T11:00:10.089Z,83.41
2022-09-07T11:00:54.131Z,83.91
2022-09-07T11:01:53.018Z,84.71
2022-09-07T11:03:53.916Z,85.57
2022-09-07T11:04:52.875Z,85.87
2022-09-07T11:05:53.129Z,83.93
2022-09-07T11:06:52.848Z,84.43
2022-09-07T11:07:52.857Z,84.29
2022-09-07T11:09:53.840Z,83.49
2022-09-07T11:10:52.840Z,82.42
2022-09-07T11:12:08.161Z,80.36
2022-09-07T11:12:53.819Z,80.12
2022-09-07T11:14:11.849Z,79.28
2022-09-07T11:14:53.818Z,78.19
2022-09-07T11:15:52.837Z,78.59
2022-09-07T11:16:52.926Z,77.93
2022-09-07T11:17:53.411Z,77.53
2022-09-07T11:18:52.965Z,77.47
2022-09-07T11:19:52.714Z,75.94
2022-09-07T11:20:52.702Z,75.27
2022-09-07T11:21:59.770Z,76.87
2022-09-07T11:22:59.130Z,77.31
2022-09-07T11:23:52.670Z,78.41
2022-09-07T11:25:53.649Z,77.84
2022-09-07T11:26:52.631Z,78.78
2022-09-07T11:27:52.655Z,79.44
2022-09-07T11:29:53.617Z,79.20
2022-09-07T11:30:56.618Z,78.86
2022-09-07T11:31:53.581Z,78.97
2022-09-07T11:32:52.791Z,78.37
2022-09-07T11:34:53.587Z,78.13
2022-09-07T11:35:52.559Z,77.23
2022-09-07T11:36:52.534Z,76.93
2022-09-07T11:37:52.568Z,78.23
2022-09-07T11:38:52.613Z,77.93
2022-09-07T11:39:52.578Z,77.97
2022-09-07T11:40:52.493Z,78.03
2022-09-07T11:41:55.096Z,77.80
2022-09-07T11:42:52.489Z,78.29
2022-09-07T11:43:52.450Z,76.73
2022-09-07T11:44:59.100Z,76.43
2022-09-07T11:45:55.202Z,76.83
2022-09-07T11:46:52.427Z,75.34
2022-09-07T11:47:52.453Z,77.17
2022-09-07T11:48:52.446Z,76.57
2022-09-07T11:49:55.049Z,77.67
2022-09-07T11:50:53.631Z,77.27
2022-09-07T11:51:53.904Z,77.73
2022-09-07T11:52:53.835Z,77.07
2022-09-07T11:53:55.110Z,78.17
2022-09-07T11:54:52.429Z,78.73
2022-09-07T11:55:52.354Z,78.23
2022-09-07T11:56:52.330Z,77.63
2022-09-07T11:57:55.500Z,76.83
2022-09-07T11:58:52.284Z,77.17
2022-09-07T11:59:52.288Z,77.97
2022-09-07T12:00:52.644Z,77.97
2022-09-07T12:01:53.307Z,78.13
2022-09-07T12:03:00.725Z,76.64
2022-09-07T12:03:53.426Z,75.14
2022-09-07T12:04:56.124Z,75.84
2022-09-07T12:05:52.211Z,76.50
2022-09-07T12:06:52.237Z,75.07
2022-09-07T12:07:52.192Z,75.33
2022-09-07T12:08:52.178Z,75.20
2022-09-07T12:09:52.171Z,75.20
2022-09-07T12:10:52.164Z,75.16
2022-09-07T12:11:52.169Z,73.97
2022-09-07T12:12:52.183Z,74.37
2022-09-07T12:13:52.134Z,74.26
2022-09-07T12:14:52.168Z,74.96
2022-09-07T12:15:52.188Z,75.59
2022-09-07T12:16:52.091Z,76.09
2022-09-07T12:17:52.111Z,76.15
2022-09-07T12:18:52.144Z,75.29
2022-09-07T12:19:52.063Z,76.19
2022-09-07T12:20:52.064Z,75.13
2022-09-07T12:21:52.043Z,75.59
2022-09-07T12:22:52.022Z,75.49
2022-09-07T12:23:52.036Z,75.95
2022-09-07T12:24:52.113Z,75.26
2022-09-07T12:25:52.001Z,75.79
2022-09-07T12:26:51.991Z,75.83
2022-09-07T12:27:51.982Z,77.38
2022-09-07T12:28:51.974Z,75.49
2022-09-07T12:29:51.962Z,76.09
2022-09-07T12:30:52.047Z,77.09
2022-09-07T12:32:07.650Z,76.29
2022-09-07T12:32:54.151Z,76.79
2022-09-07T12:33:51.909Z,76.17
2022-09-07T12:34:51.936Z,78.35
2022-09-07T12:35:51.893Z,78.35
2022-09-07T12:36:51.890Z,78.19
2022-09-07T12:37:51.864Z,78.06
2022-09-07T12:38:51.881Z,77.95
2022-09-07T12:39:51.885Z,78.16
2022-09-07T12:40:51.831Z,76.76
2022-09-07T12:42:31.909Z,77.39
2022-09-07T12:42:54.482Z,78.19
2022-09-07T12:43:54.708Z,78.16
2022-09-07T12:44:51.816Z,77.76
2022-09-07T12:45:51.834Z,77.95
2022-09-07T12:46:51.764Z,77.66
2022-09-07T12:47:52.622Z,77.46
2022-09-07T12:48:52.748Z,77.16
2022-09-07T12:49:52.621Z,77.50
2022-09-07T12:50:52.650Z,78.53
2022-09-07T12:52:15.353Z,78.29
2022-09-07T12:52:52.717Z,78.49
2022-09-07T12:53:56.964Z,78.06
2022-09-07T12:55:09.962Z,76.72
2022-09-07T12:57:52.651Z,79.03
2022-09-07T12:58:52.622Z,79.13
2022-09-07T12:59:51.608Z,79.43
2022-09-07T13:00:51.617Z,79.93
2022-09-07T13:01:51.802Z,79.19
2022-09-07T13:02:51.577Z,78.09
2022-09-07T13:03:52.331Z,78.75
2022-09-07T13:04:52.767Z,77.46
2022-09-07T13:05:51.549Z,77.95
2022-09-07T13:07:09.399Z,78.19
2022-09-07T13:07:57.351Z,78.79
2022-09-07T13:08:52.548Z,78.09
2022-09-07T13:09:58.122Z,77.99
2022-09-07T13:10:51.496Z,77.99
2022-09-07T13:11:51.507Z,77.59
2022-09-07T13:12:57.067Z,75.83
2022-09-07T13:14:09.436Z,76.82
2022-09-07T13:14:52.651Z,76.26
2022-09-07T13:15:51.513Z,76.86
2022-09-07T13:17:52.405Z,76.56
2022-09-07T13:18:52.410Z,76.72
2022-09-07T13:19:51.416Z,76.49
2022-09-07T13:20:53.589Z,75.49
2022-09-07T13:21:51.380Z,74.26
2022-09-07T13:22:51.357Z,75.23
2022-09-07T13:23:51.343Z,75.27
2022-09-07T13:24:51.519Z,75.27
2022-09-07T13:25:51.336Z,75.83
2022-09-07T13:26:51.507Z,75.76
2022-09-07T13:27:51.474Z,74.69
2022-09-07T13:28:51.390Z,74.46
2022-09-07T13:29:51.381Z,74.26
2022-09-07T13:30:51.290Z,74.37
2022-09-07T13:31:52.794Z,75.10
2022-09-07T13:33:52.226Z,75.40
2022-09-07T13:34:51.240Z,73.97
2022-09-07T13:35:51.201Z,73.86
2022-09-07T13:36:51.200Z,74.03
2022-09-07T13:37:51.192Z,72.24